createdAt,value
2018-06-23T00:01:50.452Z,10.00
2018-06-23T00:04:18.785Z,10.00
2018-06-23T00:06:47.089Z,9.90
2018-06-23T00:09:15.408Z,9.70
2018-06-23T00:11:43.719Z,9.60
2018-06-23T00:14:12.228Z,9.40
2018-06-23T00:16:42.484Z,9.10
2018-06-23T00:19:10.880Z,8.90
2018-06-23T00:21:39.253Z,8.60
2018-06-23T00:24:08.108Z,8.40
2018-06-23T00:26:36.453Z,8.30
2018-06-23T00:29:04.808Z,8.20
2018-06-23T00:31:33.110Z,8.10
2018-06-23T00:34:01.417Z,8.00
2018-06-23T00:36:29.726Z,8.00
2018-06-23T00:38:58.220Z,7.90
2018-06-23T00:41:26.482Z,7.80
2018-06-23T00:43:54.771Z,7.90
2018-06-23T00:46:23.698Z,7.80
2018-06-23T00:48:52.000Z,7.90
2018-06-23T00:51:20.340Z,7.90
2018-06-23T00:53:48.720Z,7.90
2018-06-23T00:56:17.034Z,7.90
2018-06-23T00:58:57.136Z,7.90
2018-06-23T01:01:25.373Z,8.00
2018-06-23T01:03:54.281Z,8.10
2018-06-23T01:06:22.595Z,8.10
2018-06-23T01:11:18.939Z,8.10
2018-06-23T01:13:47.241Z,8.10
2018-06-23T01:16:15.548Z,8.10
2018-06-23T01:18:44.164Z,8.20
2018-06-23T01:21:12.484Z,8.20
2018-06-23T01:23:40.752Z,8.30
2018-06-23T01:28:37.159Z,8.30
2018-06-23T01:31:05.916Z,8.30
2018-06-23T01:33:34.417Z,8.30
2018-06-23T01:36:03.012Z,8.20
2018-06-23T01:38:31.330Z,8.20
2018-06-23T01:43:31.153Z,8.00
2018-06-23T01:45:59.429Z,7.90
2018-06-23T01:48:27.968Z,7.90
2018-06-23T01:50:56.252Z,7.90
2018-06-23T01:53:25.899Z,7.80
2018-06-23T01:58:22.303Z,7.60
2018-06-23T02:00:50.960Z,7.70
2018-06-23T02:03:19.283Z,7.60
2018-06-23T02:05:47.865Z,7.50
2018-06-23T02:08:16.160Z,7.50
2018-06-23T02:10:44.459Z,7.40
2018-06-23T02:13:12.740Z,7.20
2018-06-23T02:15:46.425Z,7.00
2018-06-23T02:19:18.696Z,6.90
2018-06-23T02:21:53.099Z,6.80
2018-06-23T02:24:26.825Z,6.70
2018-06-23T02:27:00.514Z,6.60
2018-06-23T02:29:34.245Z,6.50
2018-06-23T02:32:07.853Z,6.30
2018-06-23T02:34:41.637Z,6.20
2018-06-23T02:37:09.917Z,6.00
2018-06-23T02:39:38.459Z,5.90
2018-06-23T02:42:07.344Z,5.90
2018-06-23T02:44:35.713Z,5.80
2018-06-23T02:47:04.762Z,5.90
2018-06-23T02:49:34.016Z,5.90
2018-06-23T02:52:02.316Z,5.90
2018-06-23T02:54:30.684Z,5.80
2018-06-23T02:56:58.953Z,5.80
2018-06-23T02:59:27.247Z,5.70
2018-06-23T03:01:55.524Z,5.60
2018-06-23T03:04:23.805Z,5.60
2018-06-23T03:06:52.078Z,5.60
2018-06-23T03:09:20.391Z,5.60
2018-06-23T03:11:48.651Z,5.60
2018-06-23T03:14:16.936Z,5.60
2018-06-23T03:16:45.292Z,5.70
2018-06-23T03:19:13.607Z,5.80
2018-06-23T03:21:41.919Z,5.80
2018-06-23T03:24:10.241Z,5.90
2018-06-23T03:29:07.101Z,6.10
2018-06-23T03:31:35.573Z,6.10
2018-06-23T03:34:03.835Z,6.20
2018-06-23T03:36:32.174Z,6.20
2018-06-23T03:39:00.536Z,6.20
2018-06-23T03:41:28.888Z,6.30
2018-06-23T03:43:57.185Z,6.30
2018-06-23T03:48:53.613Z,6.40
2018-06-23T03:51:21.963Z,6.60
2018-06-23T03:53:50.309Z,6.70
2018-06-23T03:56:19.094Z,6.90
2018-06-23T03:58:47.392Z,7.10
2018-06-23T04:01:15.698Z,7.40
2018-06-23T04:03:44.184Z,7.60
2018-06-23T04:06:12.533Z,7.70
2018-06-23T04:08:40.780Z,7.90
2018-06-23T04:11:09.061Z,8.00
2018-06-23T04:13:41.280Z,8.20
2018-06-23T04:16:09.621Z,8.50
2018-06-23T04:18:37.901Z,8.60
2018-06-23T04:21:06.247Z,8.80
2018-06-23T04:23:34.584Z,9.00
2018-06-23T04:26:13.393Z,9.30
2018-06-23T04:28:41.717Z,9.40
2018-06-23T04:31:11.636Z,9.70
2018-06-23T04:33:40.076Z,9.80
2018-06-23T04:36:08.801Z,10.10
2018-06-23T04:38:37.180Z,10.30
2018-06-23T04:41:05.534Z,10.50
2018-06-23T04:43:34.216Z,10.90
2018-06-23T04:46:03.105Z,12.00
2018-06-23T04:48:31.396Z,13.30
2018-06-23T04:51:00.176Z,14.50
2018-06-23T04:53:28.578Z,15.70
2018-06-23T04:55:58.759Z,16.60
2018-06-23T04:58:27.052Z,17.30
2018-06-23T05:00:55.388Z,17.80
2018-06-23T05:03:23.656Z,18.20
2018-06-23T05:05:51.940Z,18.00
2018-06-23T05:08:20.431Z,17.20
2018-06-23T05:10:48.939Z,16.10
2018-06-23T05:13:17.280Z,15.40
2018-06-23T05:15:45.512Z,14.90
2018-06-23T05:18:13.892Z,14.80
2018-06-23T05:20:42.212Z,14.60
2018-06-23T05:23:14.309Z,14.40
2018-06-23T05:25:42.564Z,14.40
2018-06-23T05:28:10.980Z,14.30
2018-06-23T05:30:39.311Z,14.30
2018-06-23T05:33:07.831Z,14.30
2018-06-23T05:35:36.260Z,14.30
2018-06-23T05:38:04.591Z,14.80
2018-06-23T05:40:32.935Z,15.20
2018-06-23T05:43:02.003Z,15.20
2018-06-23T05:45:30.431Z,15.70
2018-06-23T05:48:12.971Z,16.50
2018-06-23T05:50:41.495Z,16.90
2018-06-23T05:53:09.915Z,17.10
2018-06-23T05:55:39.034Z,17.90
2018-06-23T05:58:07.426Z,18.80
2018-06-23T06:00:36.235Z,18.90
2018-06-23T06:03:04.890Z,18.90
2018-06-23T06:05:33.196Z,19.30
2018-06-23T06:08:01.495Z,19.40
2018-06-23T06:10:29.900Z,18.10
2018-06-23T06:12:58.624Z,17.20
2018-06-23T06:15:26.954Z,16.20
2018-06-23T06:17:55.275Z,15.70
2018-06-23T06:20:23.956Z,15.40
2018-06-23T06:22:52.287Z,15.10
2018-06-23T06:25:21.679Z,14.80
2018-06-23T06:27:50.214Z,14.60
2018-06-23T06:32:46.583Z,14.80
2018-06-23T06:35:14.944Z,15.60
2018-06-23T06:40:11.327Z,17.80
2018-06-23T06:42:39.638Z,18.40
2018-06-23T06:45:08.163Z,18.70
2018-06-23T06:47:36.498Z,19.60
2018-06-23T06:52:42.236Z,21.30
2018-06-23T06:55:10.576Z,20.40
2018-06-23T06:57:39.125Z,19.80
2018-06-23T07:00:08.140Z,19.80
2018-06-23T07:02:36.526Z,20.10
2018-06-23T07:05:05.263Z,21.20
2018-06-23T07:07:33.532Z,21.40
2018-06-23T07:10:02.131Z,21.80
2018-06-23T07:12:30.552Z,21.40
2018-06-23T07:14:58.884Z,21.70
2018-06-23T07:17:28.064Z,22.80
2018-06-23T07:19:56.379Z,24.00
2018-06-23T07:22:24.638Z,24.90
2018-06-23T07:24:53.176Z,25.40
2018-06-23T07:27:21.474Z,25.30
2018-06-23T07:29:49.756Z,24.00
2018-06-23T07:32:18.064Z,22.70
2018-06-23T07:34:46.462Z,22.40
2018-06-23T07:37:14.897Z,21.20
2018-06-23T07:39:43.188Z,21.30
2018-06-23T07:42:11.476Z,22.00
2018-06-23T07:44:39.703Z,22.00
2018-06-23T07:47:08.859Z,20.90
2018-06-23T07:49:37.153Z,20.30
2018-06-23T07:52:06.363Z,19.60
2018-06-23T07:57:02.760Z,19.90
2018-06-23T07:59:31.616Z,20.30
2018-06-23T08:01:59.892Z,20.80
2018-06-23T08:04:30.230Z,21.50
2018-06-23T08:06:58.872Z,22.60
2018-06-23T08:09:27.153Z,23.70
2018-06-23T08:11:55.815Z,24.30
2018-06-23T08:14:24.103Z,24.50
2018-06-23T08:17:04.646Z,23.70
2018-06-23T08:19:52.674Z,22.70
2018-06-23T08:22:22.335Z,21.10
2018-06-23T08:24:51.129Z,21.00
2018-06-23T08:27:19.450Z,21.40
2018-06-23T08:29:47.771Z,21.90
2018-06-23T08:32:16.061Z,22.60
2018-06-23T08:34:44.977Z,22.70
2018-06-23T08:37:13.308Z,23.40
2018-06-23T08:39:41.613Z,24.20
2018-06-23T08:42:09.943Z,24.20
2018-06-23T08:44:38.418Z,23.80
2018-06-23T08:47:06.821Z,22.70
2018-06-23T08:49:35.140Z,22.00
2018-06-23T08:52:03.434Z,22.20
2018-06-23T08:54:31.793Z,23.20
2018-06-23T08:57:00.152Z,24.40
2018-06-23T08:59:28.787Z,25.40
2018-06-23T09:01:57.166Z,25.20
2018-06-23T09:04:27.768Z,24.60
2018-06-23T09:06:56.060Z,23.60
2018-06-23T09:09:24.385Z,23.60
2018-06-23T09:11:52.725Z,23.00
2018-06-23T09:14:21.037Z,23.10
2018-06-23T09:16:49.391Z,22.70
2018-06-23T09:19:18.188Z,21.80
2018-06-23T09:21:46.813Z,21.60
2018-06-23T09:24:15.096Z,21.40
2018-06-23T09:26:43.578Z,21.70
2018-06-23T09:29:11.852Z,22.00
2018-06-23T09:31:40.552Z,22.40
2018-06-23T09:34:08.896Z,23.10
2018-06-23T09:36:37.467Z,23.00
2018-06-23T09:39:08.378Z,23.40
2018-06-23T09:41:36.926Z,23.50
2018-06-23T09:44:05.807Z,23.40
2018-06-23T09:46:35.347Z,23.10
2018-06-23T09:49:06.365Z,22.50
2018-06-23T09:54:02.863Z,23.10
2018-06-23T09:56:31.776Z,23.20
2018-06-23T09:59:00.242Z,23.30
2018-06-23T10:01:28.620Z,23.40
2018-06-23T10:03:56.968Z,24.10
2018-06-23T10:06:25.346Z,24.40
2018-06-23T10:08:53.596Z,24.60
2018-06-23T10:11:21.915Z,24.60
2018-06-23T10:13:50.248Z,24.40
2018-06-23T10:16:18.608Z,24.40
2018-06-23T10:18:49.197Z,24.00
2018-06-23T10:21:17.527Z,23.70
2018-06-23T10:26:14.091Z,25.10
2018-06-23T10:28:42.637Z,25.80
2018-06-23T10:31:12.011Z,24.70
2018-06-23T10:33:40.343Z,25.10
2018-06-23T10:36:08.676Z,26.10
2018-06-23T10:38:37.335Z,27.10
2018-06-23T10:41:06.256Z,27.90
2018-06-23T10:43:34.812Z,26.00
2018-06-23T10:46:03.149Z,25.10
2018-06-23T10:48:31.956Z,24.20
2018-06-23T10:51:00.298Z,24.00
2018-06-23T10:53:28.625Z,23.90
2018-06-23T10:55:57.114Z,23.70
2018-06-23T10:58:25.810Z,23.40
2018-06-23T11:00:54.244Z,22.90
2018-06-23T11:03:24.079Z,22.90
2018-06-23T11:05:52.410Z,23.80
2018-06-23T11:08:20.692Z,24.50
2018-06-23T11:10:49.050Z,25.10
2018-06-23T11:13:30.151Z,25.60
2018-06-23T11:15:58.808Z,25.70
2018-06-23T11:18:27.078Z,25.60
2018-06-23T11:20:55.448Z,25.00
2018-06-23T11:23:23.700Z,24.80
2018-06-23T11:25:52.272Z,25.30
2018-06-23T11:28:20.557Z,26.30
2018-06-23T11:30:49.136Z,26.30
2018-06-23T11:33:17.396Z,26.00
2018-06-23T11:35:45.647Z,25.30
2018-06-23T11:38:13.939Z,24.90
2018-06-23T11:40:42.320Z,24.90
2018-06-23T11:43:10.988Z,24.80
2018-06-23T11:45:39.299Z,24.20
2018-06-23T11:48:07.594Z,23.60
2018-06-23T11:50:36.399Z,23.30
2018-06-23T11:53:04.707Z,23.30
2018-06-23T11:55:33.029Z,22.90
2018-06-23T11:58:01.379Z,22.80
2018-06-23T12:00:29.780Z,22.60
2018-06-23T12:02:58.212Z,22.20
2018-06-23T12:05:26.510Z,22.20
2018-06-23T12:07:54.834Z,22.20
2018-06-23T12:10:23.094Z,22.00
2018-06-23T12:12:51.351Z,22.60
2018-06-23T12:15:19.643Z,23.20
2018-06-23T12:20:16.015Z,23.70
2018-06-23T12:22:44.416Z,23.80
2018-06-23T12:25:17.698Z,23.70
2018-06-23T12:27:45.988Z,23.50
2018-06-23T12:30:14.336Z,23.00
2018-06-23T12:32:42.664Z,22.40
2018-06-23T12:35:52.033Z,22.40
2018-06-23T12:38:20.965Z,23.00
2018-06-23T12:40:49.308Z,22.70
2018-06-23T12:43:17.572Z,23.30
2018-06-23T12:45:47.349Z,23.80
2018-06-23T12:48:28.172Z,24.40
2018-06-23T12:50:56.440Z,25.30
2018-06-23T12:53:24.838Z,24.90
2018-06-23T12:55:57.152Z,24.20
2018-06-23T12:58:25.720Z,23.70
2018-06-23T13:00:54.137Z,23.20
2018-06-23T13:03:22.749Z,22.90
2018-06-23T13:06:14.359Z,22.60
2018-06-23T13:08:44.877Z,22.40
2018-06-23T13:11:17.196Z,22.80
